sensor_id;sensor_type;location;lat;lon;timestamp;temperature;humidity
35457;DHT22;21575;51.538;-0.084;2022-07-22T00:01:40;19.10;99.90
35457;DHT22;21575;51.538;-0.084;2022-07-22T00:04:06;19.20;99.90
35457;DHT22;21575;51.538;-0.084;2022-07-22T00:06:32;19.10;99.90
35457;DHT22;21575;51.538;-0.084;2022-07-22T00:08:58;19.10;99.90
35457;DHT22;21575;51.538;-0.084;2022-07-22T00:11:23;19.00;99.90
35457;DHT22;21575;51.538;-0.084;2022-07-22T00:13:49;18.90;99.90
35457;DHT22;21575;51.538;-0.084;2022-07-22T00:16:15;18.90;99.90
35457;DHT22;21575;51.538;-0.084;2022-07-22T00:18:41;18.90;99.90
35457;DHT22;21575;51.538;-0.084;2022-07-22T00:21:07;18.90;99.90
35457;DHT22;21575;51.538;-0.084;2022-07-22T00:23:32;18.80;99.90
35457;DHT22;21575;51.538;-0.084;2022-07-22T00:25:58;18.80;99.90
35457;DHT22;21575;51.538;-0.084;2022-07-22T00:28:24;18.80;99.90
35457;DHT22;21575;51.538;-0.084;2022-07-22T00:30:49;18.80;99.90
35457;DHT22;21575;51.538;-0.084;2022-07-22T00:33:15;18.70;99.90
35457;DHT22;21575;51.538;-0.084;2022-07-22T00:35:41;18.70;99.90
35457;DHT22;21575;51.538;-0.084;2022-07-22T00:38:07;18.80;99.90
35457;DHT22;21575;51.538;-0.084;2022-07-22T00:40:32;18.70;99.90
35457;DHT22;21575;51.538;-0.084;2022-07-22T00:43:00;18.80;99.90
35457;DHT22;21575;51.538;-0.084;2022-07-22T00:45:25;18.70;99.90
35457;DHT22;21575;51.538;-0.084;2022-07-22T00:47:51;18.70;99.90
35457;DHT22;21575;51.538;-0.084;2022-07-22T00:50:16;18.70;99.90
35457;DHT22;21575;51.538;-0.084;2022-07-22T00:52:45;18.70;99.90
35457;DHT22;21575;51.538;-0.084;2022-07-22T00:55:11;18.70;99.90
35457;DHT22;21575;51.538;-0.084;2022-07-22T00:57:37;18.70;99.90
35457;DHT22;21575;51.538;-0.084;2022-07-22T01:00:06;18.60;99.90
35457;DHT22;21575;51.538;-0.084;2022-07-22T01:02:32;18.60;99.90
35457;DHT22;21575;51.538;-0.084;2022-07-22T01:04:58;18.70;99.90
35457;DHT22;21575;51.538;-0.084;2022-07-22T01:07:23;18.60;99.90
35457;DHT22;21575;51.538;-0.084;2022-07-22T01:09:49;18.60;99.90
35457;DHT22;21575;51.538;-0.084;2022-07-22T01:12:15;18.60;99.90
35457;DHT22;21575;51.538;-0.084;2022-07-22T01:14:40;18.60;99.90
35457;DHT22;21575;51.538;-0.084;2022-07-22T01:17:06;18.60;99.90
35457;DHT22;21575;51.538;-0.084;2022-07-22T01:19:32;18.50;99.90
35457;DHT22;21575;51.538;-0.084;2022-07-22T01:21:57;18.50;99.90
35457;DHT22;21575;51.538;-0.084;2022-07-22T01:24:23;18.50;99.90
35457;DHT22;21575;51.538;-0.084;2022-07-22T01:26:49;18.50;99.90
35457;DHT22;21575;51.538;-0.084;2022-07-22T01:29:15;18.50;99.90
35457;DHT22;21575;51.538;-0.084;2022-07-22T01:31:40;18.50;99.90
35457;DHT22;21575;51.538;-0.084;2022-07-22T01:34:06;18.50;99.90
35457;DHT22;21575;51.538;-0.084;2022-07-22T01:36:32;18.50;99.90
35457;DHT22;21575;51.538;-0.084;2022-07-22T01:38:57;18.50;99.90
35457;DHT22;21575;51.538;-0.084;2022-07-22T01:41:23;18.50;99.90
35457;DHT22;21575;51.538;-0.084;2022-07-22T01:43:49;18.50;99.90
35457;DHT22;21575;51.538;-0.084;2022-07-22T01:46:14;18.50;99.90
35457;DHT22;21575;51.538;-0.084;2022-07-22T01:48:42;18.50;99.90
35457;DHT22;21575;51.538;-0.084;2022-07-22T01:51:07;18.50;99.90
35457;DHT22;21575;51.538;-0.084;2022-07-22T01:53:33;18.50;99.90
35457;DHT22;21575;51.538;-0.084;2022-07-22T01:55:59;18.50;99.90
35457;DHT22;21575;51.538;-0.084;2022-07-22T01:58:24;18.50;99.90
35457;DHT22;21575;51.538;-0.084;2022-07-22T02:00:51;18.50;99.90
35457;DHT22;21575;51.538;-0.084;2022-07-22T02:03:17;18.50;99.90
35457;DHT22;21575;51.538;-0.084;2022-07-22T02:05:43;18.50;99.90
35457;DHT22;21575;51.538;-0.084;2022-07-22T02:08:09;18.50;99.90
35457;DHT22;21575;51.538;-0.084;2022-07-22T02:10:36;18.50;99.90
35457;DHT22;21575;51.538;-0.084;2022-07-22T02:13:02;18.40;99.90
35457;DHT22;21575;51.538;-0.084;2022-07-22T02:15:28;18.50;99.90
35457;DHT22;21575;51.538;-0.084;2022-07-22T02:17:55;18.50;99.90
35457;DHT22;21575;51.538;-0.084;2022-07-22T02:20:21;18.50;99.90
35457;DHT22;21575;51.538;-0.084;2022-07-22T02:22:47;18.40;99.90
35457;DHT22;21575;51.538;-0.084;2022-07-22T02:25:12;18.50;99.90
35457;DHT22;21575;51.538;-0.084;2022-07-22T02:27:39;18.40;99.90
35457;DHT22;21575;51.538;-0.084;2022-07-22T02:30:06;18.40;99.90
35457;DHT22;21575;51.538;-0.084;2022-07-22T02:32:31;18.40;99.90
35457;DHT22;21575;51.538;-0.084;2022-07-22T02:34:57;18.40;99.90
35457;DHT22;21575;51.538;-0.084;2022-07-22T02:37:23;18.40;99.90
35457;DHT22;21575;51.538;-0.084;2022-07-22T02:39:48;18.40;99.90
35457;DHT22;21575;51.538;-0.084;2022-07-22T02:42:14;18.40;99.90
35457;DHT22;21575;51.538;-0.084;2022-07-22T02:44:40;18.40;99.90
35457;DHT22;21575;51.538;-0.084;2022-07-22T02:47:06;18.40;99.90
35457;DHT22;21575;51.538;-0.084;2022-07-22T02:49:31;18.40;99.90
35457;DHT22;21575;51.538;-0.084;2022-07-22T02:51:57;18.40;99.90
35457;DHT22;21575;51.538;-0.084;2022-07-22T02:54:23;18.30;99.90
35457;DHT22;21575;51.538;-0.084;2022-07-22T02:56:48;18.30;99.90
35457;DHT22;21575;51.538;-0.084;2022-07-22T02:59:14;18.30;99.90
35457;DHT22;21575;51.538;-0.084;2022-07-22T03:01:39;18.30;99.90
35457;DHT22;21575;51.538;-0.084;2022-07-22T03:04:05;18.30;99.90
35457;DHT22;21575;51.538;-0.084;2022-07-22T03:06:31;18.30;99.90
35457;DHT22;21575;51.538;-0.084;2022-07-22T03:08:56;18.30;99.90
35457;DHT22;21575;51.538;-0.084;2022-07-22T03:11:22;18.30;99.90
35457;DHT22;21575;51.538;-0.084;2022-07-22T03:13:47;18.30;99.90
35457;DHT22;21575;51.538;-0.084;2022-07-22T03:16:14;18.30;99.90
35457;DHT22;21575;51.538;-0.084;2022-07-22T03:18:40;18.30;99.90
35457;DHT22;21575;51.538;-0.084;2022-07-22T03:21:06;18.30;99.90
35457;DHT22;21575;51.538;-0.084;2022-07-22T03:23:31;18.30;99.90
35457;DHT22;21575;51.538;-0.084;2022-07-22T03:25:57;18.30;99.90
35457;DHT22;21575;51.538;-0.084;2022-07-22T03:28:22;18.30;99.90
35457;DHT22;21575;51.538;-0.084;2022-07-22T03:30:48;18.30;99.90
35457;DHT22;21575;51.538;-0.084;2022-07-22T03:33:14;18.30;99.90
35457;DHT22;21575;51.538;-0.084;2022-07-22T03:35:40;18.30;99.90
35457;DHT22;21575;51.538;-0.084;2022-07-22T03:38:05;18.30;99.90
35457;DHT22;21575;51.538;-0.084;2022-07-22T03:40:31;18.30;99.90
35457;DHT22;21575;51.538;-0.084;2022-07-22T03:42:57;18.20;99.90
35457;DHT22;21575;51.538;-0.084;2022-07-22T03:45:22;18.20;99.90
35457;DHT22;21575;51.538;-0.084;2022-07-22T03:47:48;18.30;99.90
35457;DHT22;21575;51.538;-0.084;2022-07-22T03:50:14;18.20;99.90
35457;DHT22;21575;51.538;-0.084;2022-07-22T03:52:39;18.30;99.90
35457;DHT22;21575;51.538;-0.084;2022-07-22T03:55:06;18.30;99.90
35457;DHT22;21575;51.538;-0.084;2022-07-22T03:57:32;18.30;99.90
35457;DHT22;21575;51.538;-0.084;2022-07-22T03:59:57;18.20;99.90
35457;DHT22;21575;51.538;-0.084;2022-07-22T04:02:23;18.20;99.90
35457;DHT22;21575;51.538;-0.084;2022-07-22T04:04:48;18.30;99.90
35457;DHT22;21575;51.538;-0.084;2022-07-22T04:07:15;18.30;99.90
35457;DHT22;21575;51.538;-0.084;2022-07-22T04:09:40;18.20;99.90
35457;DHT22;21575;51.538;-0.084;2022-07-22T04:12:06;18.30;99.90
35457;DHT22;21575;51.538;-0.084;2022-07-22T04:14:32;18.30;99.90
35457;DHT22;21575;51.538;-0.084;2022-07-22T04:16:57;18.20;99.90
35457;DHT22;21575;51.538;-0.084;2022-07-22T04:19:23;18.20;99.90
35457;DHT22;21575;51.538;-0.084;2022-07-22T04:21:49;18.10;99.90
35457;DHT22;21575;51.538;-0.084;2022-07-22T04:24:14;18.10;99.90
35457;DHT22;21575;51.538;-0.084;2022-07-22T04:26:40;18.10;99.90
35457;DHT22;21575;51.538;-0.084;2022-07-22T04:29:06;18.10;99.90
35457;DHT22;21575;51.538;-0.084;2022-07-22T04:31:32;18.10;99.90
35457;DHT22;21575;51.538;-0.084;2022-07-22T04:33:58;18.10;99.90
35457;DHT22;21575;51.538;-0.084;2022-07-22T04:36:24;18.10;99.90
35457;DHT22;21575;51.538;-0.084;2022-07-22T04:38:50;18.10;99.90
35457;DHT22;21575;51.538;-0.084;2022-07-22T04:41:16;18.10;99.90
35457;DHT22;21575;51.538;-0.084;2022-07-22T04:43:42;18.00;99.90
35457;DHT22;21575;51.538;-0.084;2022-07-22T04:46:08;18.10;99.90
35457;DHT22;21575;51.538;-0.084;2022-07-22T04:48:34;18.10;99.90
35457;DHT22;21575;51.538;-0.084;2022-07-22T04:51:01;18.10;99.90
35457;DHT22;21575;51.538;-0.084;2022-07-22T04:53:27;18.20;99.90
35457;DHT22;21575;51.538;-0.084;2022-07-22T04:55:53;18.20;99.90
35457;DHT22;21575;51.538;-0.084;2022-07-22T04:58:18;18.20;99.90
35457;DHT22;21575;51.538;-0.084;2022-07-22T05:00:45;18.30;99.90
35457;DHT22;21575;51.538;-0.084;2022-07-22T05:03:11;18.30;99.90
35457;DHT22;21575;51.538;-0.084;2022-07-22T05:05:36;18.30;99.90
35457;DHT22;21575;51.538;-0.084;2022-07-22T05:08:02;18.30;99.90
35457;DHT22;21575;51.538;-0.084;2022-07-22T05:10:28;18.40;99.90
35457;DHT22;21575;51.538;-0.084;2022-07-22T05:12:53;18.40;99.90
35457;DHT22;21575;51.538;-0.084;2022-07-22T05:15:19;18.40;99.90
35457;DHT22;21575;51.538;-0.084;2022-07-22T05:17:45;18.40;99.90
35457;DHT22;21575;51.538;-0.084;2022-07-22T05:20:11;18.50;99.90
35457;DHT22;21575;51.538;-0.084;2022-07-22T05:22:37;18.50;99.90
35457;DHT22;21575;51.538;-0.084;2022-07-22T05:25:03;18.50;99.90
35457;DHT22;21575;51.538;-0.084;2022-07-22T05:27:29;18.50;99.90
35457;DHT22;21575;51.538;-0.084;2022-07-22T05:29:54;18.50;99.90
35457;DHT22;21575;51.538;-0.084;2022-07-22T05:32:20;18.50;99.90
35457;DHT22;21575;51.538;-0.084;2022-07-22T05:34:45;18.50;99.90
35457;DHT22;21575;51.538;-0.084;2022-07-22T05:37:11;18.50;99.90
35457;DHT22;21575;51.538;-0.084;2022-07-22T05:39:37;18.50;99.90
35457;DHT22;21575;51.538;-0.084;2022-07-22T05:42:02;18.50;99.90
35457;DHT22;21575;51.538;-0.084;2022-07-22T05:44:28;18.50;99.90
35457;DHT22;21575;51.538;-0.084;2022-07-22T05:46:53;18.50;99.90
35457;DHT22;21575;51.538;-0.084;2022-07-22T05:49:19;18.60;99.90
35457;DHT22;21575;51.538;-0.084;2022-07-22T05:51:47;18.60;99.90
35457;DHT22;21575;51.538;-0.084;2022-07-22T05:54:12;18.60;99.90
35457;DHT22;21575;51.538;-0.084;2022-07-22T05:56:38;18.60;99.90
35457;DHT22;21575;51.538;-0.084;2022-07-22T05:59:03;18.60;99.90
35457;DHT22;21575;51.538;-0.084;2022-07-22T06:01:29;18.60;99.90
35457;DHT22;21575;51.538;-0.084;2022-07-22T06:03:55;18.70;99.90
35457;DHT22;21575;51.538;-0.084;2022-07-22T06:06:20;18.70;99.90
35457;DHT22;21575;51.538;-0.084;2022-07-22T06:08:46;18.70;99.90
35457;DHT22;21575;51.538;-0.084;2022-07-22T06:11:12;18.70;99.90
35457;DHT22;21575;51.538;-0.084;2022-07-22T06:13:38;18.70;99.90
35457;DHT22;21575;51.538;-0.084;2022-07-22T06:16:04;18.70;99.90
35457;DHT22;21575;51.538;-0.084;2022-07-22T06:18:29;18.70;99.90
35457;DHT22;21575;51.538;-0.084;2022-07-22T06:20:55;18.80;99.90
35457;DHT22;21575;51.538;-0.084;2022-07-22T06:23:23;18.80;99.90
35457;DHT22;21575;51.538;-0.084;2022-07-22T06:25:49;18.80;99.90
35457;DHT22;21575;51.538;-0.084;2022-07-22T06:28:15;18.80;99.90
35457;DHT22;21575;51.538;-0.084;2022-07-22T06:30:40;18.90;99.90
35457;DHT22;21575;51.538;-0.084;2022-07-22T06:33:07;18.90;99.90
35457;DHT22;21575;51.538;-0.084;2022-07-22T06:35:32;18.80;99.90
35457;DHT22;21575;51.538;-0.084;2022-07-22T06:37:58;18.90;99.90
35457;DHT22;21575;51.538;-0.084;2022-07-22T06:40:23;18.90;99.90
35457;DHT22;21575;51.538;-0.084;2022-07-22T06:42:49;19.00;99.90
35457;DHT22;21575;51.538;-0.084;2022-07-22T06:45:15;19.00;99.90
35457;DHT22;21575;51.538;-0.084;2022-07-22T06:47:40;19.00;99.90
35457;DHT22;21575;51.538;-0.084;2022-07-22T06:50:07;19.10;99.90
35457;DHT22;21575;51.538;-0.084;2022-07-22T06:52:33;19.10;99.90
35457;DHT22;21575;51.538;-0.084;2022-07-22T06:54:59;19.20;99.90
35457;DHT22;21575;51.538;-0.084;2022-07-22T06:57:24;19.20;99.90
35457;DHT22;21575;51.538;-0.084;2022-07-22T06:59:50;19.30;99.90
35457;DHT22;21575;51.538;-0.084;2022-07-22T07:02:16;19.50;99.90
35457;DHT22;21575;51.538;-0.084;2022-07-22T07:04:42;19.50;99.90
35457;DHT22;21575;51.538;-0.084;2022-07-22T07:07:08;19.60;99.90
35457;DHT22;21575;51.538;-0.084;2022-07-22T07:09:34;19.70;99.90
35457;DHT22;21575;51.538;-0.084;2022-07-22T07:12:00;19.80;99.90
35457;DHT22;21575;51.538;-0.084;2022-07-22T07:14:26;19.70;99.90
35457;DHT22;21575;51.538;-0.084;2022-07-22T07:16:52;19.80;99.90
35457;DHT22;21575;51.538;-0.084;2022-07-22T07:19:18;19.80;99.90
35457;DHT22;21575;51.538;-0.084;2022-07-22T07:21:45;19.90;99.90
35457;DHT22;21575;51.538;-0.084;2022-07-22T07:24:11;19.80;99.90
35457;DHT22;21575;51.538;-0.084;2022-07-22T07:26:37;19.80;99.90
35457;DHT22;21575;51.538;-0.084;2022-07-22T07:29:03;19.90;99.90
35457;DHT22;21575;51.538;-0.084;2022-07-22T07:31:29;19.90;99.90
35457;DHT22;21575;51.538;-0.084;2022-07-22T07:33:55;20.00;99.90
35457;DHT22;21575;51.538;-0.084;2022-07-22T07:36:21;20.00;99.90
35457;DHT22;21575;51.538;-0.084;2022-07-22T07:38:47;20.10;99.90
35457;DHT22;21575;51.538;-0.084;2022-07-22T07:41:12;20.20;99.90
35457;DHT22;21575;51.538;-0.084;2022-07-22T07:43:38;20.30;99.90
35457;DHT22;21575;51.538;-0.084;2022-07-22T07:46:04;20.30;99.90
35457;DHT22;21575;51.538;-0.084;2022-07-22T07:48:30;20.50;99.90
35457;DHT22;21575;51.538;-0.084;2022-07-22T07:50:55;20.60;99.90
35457;DHT22;21575;51.538;-0.084;2022-07-22T07:53:21;20.70;99.90
35457;DHT22;21575;51.538;-0.084;2022-07-22T07:55:47;20.80;99.90
35457;DHT22;21575;51.538;-0.084;2022-07-22T07:58:13;20.90;99.90
35457;DHT22;21575;51.538;-0.084;2022-07-22T08:00:38;21.00;99.90
35457;DHT22;21575;51.538;-0.084;2022-07-22T08:03:06;21.10;99.90
35457;DHT22;21575;51.538;-0.084;2022-07-22T08:05:32;21.10;99.90
35457;DHT22;21575;51.538;-0.084;2022-07-22T08:07:58;21.20;99.90
35457;DHT22;21575;51.538;-0.084;2022-07-22T08:10:23;21.30;99.90
35457;DHT22;21575;51.538;-0.084;2022-07-22T08:12:51;21.40;99.90
35457;DHT22;21575;51.538;-0.084;2022-07-22T08:15:16;21.40;99.90
35457;DHT22;21575;51.538;-0.084;2022-07-22T08:17:42;21.30;99.90
35457;DHT22;21575;51.538;-0.084;2022-07-22T08:20:08;21.20;99.90
35457;DHT22;21575;51.538;-0.084;2022-07-22T08:22:34;21.10;99.90
35457;DHT22;21575;51.538;-0.084;2022-07-22T08:25:00;21.00;99.90
35457;DHT22;21575;51.538;-0.084;2022-07-22T08:27:26;20.90;99.90
35457;DHT22;21575;51.538;-0.084;2022-07-22T08:29:52;20.80;99.90
35457;DHT22;21575;51.538;-0.084;2022-07-22T08:32:18;20.70;99.90
35457;DHT22;21575;51.538;-0.084;2022-07-22T08:34:44;20.70;99.90
35457;DHT22;21575;51.538;-0.084;2022-07-22T08:37:09;20.80;99.90
35457;DHT22;21575;51.538;-0.084;2022-07-22T08:39:35;20.90;99.90
35457;DHT22;21575;51.538;-0.084;2022-07-22T08:42:01;21.00;99.90
35457;DHT22;21575;51.538;-0.084;2022-07-22T08:44:31;21.10;99.90
35457;DHT22;21575;51.538;-0.084;2022-07-22T08:46:58;21.20;99.90
35457;DHT22;21575;51.538;-0.084;2022-07-22T08:49:24;21.30;99.90
35457;DHT22;21575;51.538;-0.084;2022-07-22T08:51:50;21.50;99.90
35457;DHT22;21575;51.538;-0.084;2022-07-22T08:54:15;21.60;99.90
35457;DHT22;21575;51.538;-0.084;2022-07-22T08:56:41;21.70;99.90
35457;DHT22;21575;51.538;-0.084;2022-07-22T08:59:08;21.70;99.90
35457;DHT22;21575;51.538;-0.084;2022-07-22T09:01:34;21.70;99.90
35457;DHT22;21575;51.538;-0.084;2022-07-22T09:03:59;21.80;99.90
35457;DHT22;21575;51.538;-0.084;2022-07-22T09:06:27;21.80;99.90
35457;DHT22;21575;51.538;-0.084;2022-07-22T09:09:02;21.80;99.90
35457;DHT22;21575;51.538;-0.084;2022-07-22T09:11:30;21.80;99.90
35457;DHT22;21575;51.538;-0.084;2022-07-22T09:13:57;21.70;99.90
35457;DHT22;21575;51.538;-0.084;2022-07-22T09:16:46;21.70;99.90
35457;DHT22;21575;51.538;-0.084;2022-07-22T09:19:13;21.60;99.90
35457;DHT22;21575;51.538;-0.084;2022-07-22T09:21:42;21.70;99.90
35457;DHT22;21575;51.538;-0.084;2022-07-22T09:24:33;21.70;99.90
35457;DHT22;21575;51.538;-0.084;2022-07-22T09:27:02;21.70;99.90
35457;DHT22;21575;51.538;-0.084;2022-07-22T09:29:28;21.80;99.90
35457;DHT22;21575;51.538;-0.084;2022-07-22T09:31:54;21.80;99.90
35457;DHT22;21575;51.538;-0.084;2022-07-22T09:34:28;21.90;99.90
35457;DHT22;21575;51.538;-0.084;2022-07-22T09:36:56;21.90;99.90
35457;DHT22;21575;51.538;-0.084;2022-07-22T09:39:32;22.00;99.90
35457;DHT22;21575;51.538;-0.084;2022-07-22T09:42:05;22.10;99.90
35457;DHT22;21575;51.538;-0.084;2022-07-22T09:44:31;22.10;99.90
35457;DHT22;21575;51.538;-0.084;2022-07-22T09:46:57;22.10;99.90
35457;DHT22;21575;51.538;-0.084;2022-07-22T09:49:34;22.10;99.90
35457;DHT22;21575;51.538;-0.084;2022-07-22T09:52:01;22.20;99.90
35457;DHT22;21575;51.538;-0.084;2022-07-22T09:54:28;22.20;99.90
35457;DHT22;21575;51.538;-0.084;2022-07-22T09:56:55;22.20;99.90
35457;DHT22;21575;51.538;-0.084;2022-07-22T09:59:20;22.20;99.90
35457;DHT22;21575;51.538;-0.084;2022-07-22T10:01:47;22.20;99.90
35457;DHT22;21575;51.538;-0.084;2022-07-22T10:04:16;22.20;99.90
35457;DHT22;21575;51.538;-0.084;2022-07-22T10:06:43;22.10;99.90
35457;DHT22;21575;51.538;-0.084;2022-07-22T10:09:09;22.10;99.90
35457;DHT22;21575;51.538;-0.084;2022-07-22T10:11:37;22.00;99.90
35457;DHT22;21575;51.538;-0.084;2022-07-22T10:14:03;22.10;99.90
35457;DHT22;21575;51.538;-0.084;2022-07-22T10:16:29;22.10;99.90
35457;DHT22;21575;51.538;-0.084;2022-07-22T10:18:55;22.20;99.90
35457;DHT22;21575;51.538;-0.084;2022-07-22T10:21:34;22.30;99.90
35457;DHT22;21575;51.538;-0.084;2022-07-22T10:24:14;22.40;99.90
35457;DHT22;21575;51.538;-0.084;2022-07-22T10:26:53;22.40;99.90
35457;DHT22;21575;51.538;-0.084;2022-07-22T10:29:43;22.50;99.90
35457;DHT22;21575;51.538;-0.084;2022-07-22T10:34:42;22.60;99.90
35457;DHT22;21575;51.538;-0.084;2022-07-22T10:37:37;22.40;99.90
35457;DHT22;21575;51.538;-0.084;2022-07-22T10:40:14;22.30;99.90
35457;DHT22;21575;51.538;-0.084;2022-07-22T10:45:53;22.30;99.90
35457;DHT22;21575;51.538;-0.084;2022-07-22T10:48:20;22.50;99.90
35457;DHT22;21575;51.538;-0.084;2022-07-22T10:50:49;22.60;99.90
35457;DHT22;21575;51.538;-0.084;2022-07-22T10:56:06;22.70;99.90
35457;DHT22;21575;51.538;-0.084;2022-07-22T11:01:08;22.80;99.90
35457;DHT22;21575;51.538;-0.084;2022-07-22T11:03:36;22.80;99.90
35457;DHT22;21575;51.538;-0.084;2022-07-22T11:06:20;22.80;99.90
35457;DHT22;21575;51.538;-0.084;2022-07-22T11:08:49;22.70;99.90
35457;DHT22;21575;51.538;-0.084;2022-07-22T11:11:16;22.80;99.90
35457;DHT22;21575;51.538;-0.084;2022-07-22T11:13:42;22.80;99.90
35457;DHT22;21575;51.538;-0.084;2022-07-22T11:16:20;22.80;99.90
35457;DHT22;21575;51.538;-0.084;2022-07-22T11:18:52;22.70;99.90
35457;DHT22;21575;51.538;-0.084;2022-07-22T11:21:26;22.70;99.90
35457;DHT22;21575;51.538;-0.084;2022-07-22T11:23:54;22.70;99.90
35457;DHT22;21575;51.538;-0.084;2022-07-22T11:26:26;22.80;99.90
35457;DHT22;21575;51.538;-0.084;2022-07-22T11:28:57;22.90;99.90
35457;DHT22;21575;51.538;-0.084;2022-07-22T11:31:23;22.90;99.90
35457;DHT22;21575;51.538;-0.084;2022-07-22T11:33:49;23.00;99.90
35457;DHT22;21575;51.538;-0.084;2022-07-22T11:36:15;23.00;99.90
35457;DHT22;21575;51.538;-0.084;2022-07-22T11:38:46;23.00;99.90
35457;DHT22;21575;51.538;-0.084;2022-07-22T11:41:13;23.00;99.90
35457;DHT22;21575;51.538;-0.084;2022-07-22T11:46:09;22.60;99.90
35457;DHT22;21575;51.538;-0.084;2022-07-22T11:48:35;22.60;99.90
35457;DHT22;21575;51.538;-0.084;2022-07-22T11:51:02;22.70;99.90
35457;DHT22;21575;51.538;-0.084;2022-07-22T11:53:28;22.60;99.90
35457;DHT22;21575;51.538;-0.084;2022-07-22T11:56:00;22.60;99.90
35457;DHT22;21575;51.538;-0.084;2022-07-22T11:58:53;22.60;99.90
35457;DHT22;21575;51.538;-0.084;2022-07-22T12:01:21;22.60;99.90
35457;DHT22;21575;51.538;-0.084;2022-07-22T12:03:51;22.60;99.90
35457;DHT22;21575;51.538;-0.084;2022-07-22T12:06:18;22.60;99.90
35457;DHT22;21575;51.538;-0.084;2022-07-22T12:08:46;22.50;99.90
35457;DHT22;21575;51.538;-0.084;2022-07-22T12:11:15;22.40;99.90
35457;DHT22;21575;51.538;-0.084;2022-07-22T12:13:45;22.30;99.90
35457;DHT22;21575;51.538;-0.084;2022-07-22T12:16:37;22.30;99.90
35457;DHT22;21575;51.538;-0.084;2022-07-22T12:19:08;22.20;99.90
35457;DHT22;21575;51.538;-0.084;2022-07-22T12:21:54;22.20;99.90
35457;DHT22;21575;51.538;-0.084;2022-07-22T12:24:38;22.20;99.90
35457;DHT22;21575;51.538;-0.084;2022-07-22T12:32:10;22.10;99.90
35457;DHT22;21575;51.538;-0.084;2022-07-22T12:35:00;22.20;99.90
35457;DHT22;21575;51.538;-0.084;2022-07-22T12:37:33;22.10;99.90
35457;DHT22;21575;51.538;-0.084;2022-07-22T12:40:01;22.20;99.90
35457;DHT22;21575;51.538;-0.084;2022-07-22T12:42:31;22.30;99.90
35457;DHT22;21575;51.538;-0.084;2022-07-22T12:47:48;22.50;99.90
35457;DHT22;21575;51.538;-0.084;2022-07-22T12:53:12;22.60;99.90
35457;DHT22;21575;51.538;-0.084;2022-07-22T12:55:40;22.60;99.90
35457;DHT22;21575;51.538;-0.084;2022-07-22T12:58:07;22.60;99.90
35457;DHT22;21575;51.538;-0.084;2022-07-22T13:00:38;22.60;99.90
35457;DHT22;21575;51.538;-0.084;2022-07-22T13:03:04;22.50;99.90
35457;DHT22;21575;51.538;-0.084;2022-07-22T13:05:30;22.50;99.90
35457;DHT22;21575;51.538;-0.084;2022-07-22T13:07:56;22.50;99.90
35457;DHT22;21575;51.538;-0.084;2022-07-22T13:10:24;22.40;99.90
35457;DHT22;21575;51.538;-0.084;2022-07-22T13:12:51;22.40;99.90
35457;DHT22;21575;51.538;-0.084;2022-07-22T13:15:17;22.50;99.90
35457;DHT22;21575;51.538;-0.084;2022-07-22T13:17:43;22.50;99.90
35457;DHT22;21575;51.538;-0.084;2022-07-22T13:20:10;22.50;99.90
35457;DHT22;21575;51.538;-0.084;2022-07-22T13:22:38;22.60;99.90
35457;DHT22;21575;51.538;-0.084;2022-07-22T13:25:03;22.70;99.90
35457;DHT22;21575;51.538;-0.084;2022-07-22T13:27:29;22.90;99.90
35457;DHT22;21575;51.538;-0.084;2022-07-22T13:29:55;23.10;99.90
35457;DHT22;21575;51.538;-0.084;2022-07-22T13:32:21;23.40;99.90
35457;DHT22;21575;51.538;-0.084;2022-07-22T13:34:47;23.70;99.90
35457;DHT22;21575;51.538;-0.084;2022-07-22T13:37:12;23.90;99.90
35457;DHT22;21575;51.538;-0.084;2022-07-22T13:39:38;24.20;99.90
35457;DHT22;21575;51.538;-0.084;2022-07-22T13:42:06;24.30;99.90
35457;DHT22;21575;51.538;-0.084;2022-07-22T13:44:32;24.40;99.90
35457;DHT22;21575;51.538;-0.084;2022-07-22T13:47:00;24.50;99.90
35457;DHT22;21575;51.538;-0.084;2022-07-22T13:49:27;24.40;99.90
35457;DHT22;21575;51.538;-0.084;2022-07-22T13:51:52;24.40;99.90
35457;DHT22;21575;51.538;-0.084;2022-07-22T13:54:19;24.30;99.90
35457;DHT22;21575;51.538;-0.084;2022-07-22T13:56:46;24.30;99.90
35457;DHT22;21575;51.538;-0.084;2022-07-22T13:59:15;24.20;99.90
35457;DHT22;21575;51.538;-0.084;2022-07-22T14:01:41;24.20;99.90
35457;DHT22;21575;51.538;-0.084;2022-07-22T14:04:07;24.20;99.90
35457;DHT22;21575;51.538;-0.084;2022-07-22T14:06:33;24.20;99.90
35457;DHT22;21575;51.538;-0.084;2022-07-22T14:08:59;24.00;99.90
35457;DHT22;21575;51.538;-0.084;2022-07-22T14:11:25;24.00;99.90
35457;DHT22;21575;51.538;-0.084;2022-07-22T14:13:51;24.00;99.90
35457;DHT22;21575;51.538;-0.084;2022-07-22T14:16:16;24.10;99.90
35457;DHT22;21575;51.538;-0.084;2022-07-22T14:19:06;24.20;99.90
35457;DHT22;21575;51.538;-0.084;2022-07-22T14:21:33;24.30;99.90
35457;DHT22;21575;51.538;-0.084;2022-07-22T14:23:59;24.40;99.90
35457;DHT22;21575;51.538;-0.084;2022-07-22T14:26:24;24.50;99.90
35457;DHT22;21575;51.538;-0.084;2022-07-22T14:28:51;24.50;99.90
35457;DHT22;21575;51.538;-0.084;2022-07-22T14:31:16;24.60;99.90
35457;DHT22;21575;51.538;-0.084;2022-07-22T14:33:42;24.50;99.90
35457;DHT22;21575;51.538;-0.084;2022-07-22T14:36:07;24.50;99.90
35457;DHT22;21575;51.538;-0.084;2022-07-22T14:38:33;24.50;99.90
35457;DHT22;21575;51.538;-0.084;2022-07-22T14:40:59;24.60;99.90
35457;DHT22;21575;51.538;-0.084;2022-07-22T14:43:24;24.60;99.90
35457;DHT22;21575;51.538;-0.084;2022-07-22T14:45:50;24.50;99.90
35457;DHT22;21575;51.538;-0.084;2022-07-22T14:48:16;24.60;99.90
35457;DHT22;21575;51.538;-0.084;2022-07-22T14:50:42;24.50;99.90
35457;DHT22;21575;51.538;-0.084;2022-07-22T14:53:07;24.40;99.90
35457;DHT22;21575;51.538;-0.084;2022-07-22T14:55:33;24.30;99.90
35457;DHT22;21575;51.538;-0.084;2022-07-22T14:57:59;24.30;99.90
35457;DHT22;21575;51.538;-0.084;2022-07-22T15:00:24;24.30;99.90
35457;DHT22;21575;51.538;-0.084;2022-07-22T15:02:50;24.20;99.90
35457;DHT22;21575;51.538;-0.084;2022-07-22T15:05:16;24.10;99.90
35457;DHT22;21575;51.538;-0.084;2022-07-22T15:07:41;24.10;99.90
35457;DHT22;21575;51.538;-0.084;2022-07-22T15:10:08;24.10;99.90
35457;DHT22;21575;51.538;-0.084;2022-07-22T15:12:34;24.00;99.90
35457;DHT22;21575;51.538;-0.084;2022-07-22T15:15:00;24.00;99.90
35457;DHT22;21575;51.538;-0.084;2022-07-22T15:17:25;24.00;99.90
35457;DHT22;21575;51.538;-0.084;2022-07-22T15:19:51;23.90;99.90
35457;DHT22;21575;51.538;-0.084;2022-07-22T15:22:17;23.90;99.90
35457;DHT22;21575;51.538;-0.084;2022-07-22T15:24:42;23.80;99.90
35457;DHT22;21575;51.538;-0.084;2022-07-22T15:27:08;23.70;99.90
35457;DHT22;21575;51.538;-0.084;2022-07-22T15:29:34;23.60;99.90
35457;DHT22;21575;51.538;-0.084;2022-07-22T15:32:00;23.60;99.90
35457;DHT22;21575;51.538;-0.084;2022-07-22T15:34:29;23.50;99.90
35457;DHT22;21575;51.538;-0.084;2022-07-22T15:36:56;23.50;99.90
35457;DHT22;21575;51.538;-0.084;2022-07-22T15:39:21;23.60;99.90